createdAt,value
2022-08-26T00:02:12.827Z,100529.59
2022-08-26T00:04:40.853Z,100530.00
2022-08-26T00:07:09.043Z,100527.83
2022-08-26T00:09:38.902Z,100525.33
2022-08-26T00:12:12.226Z,100522.30
2022-08-26T00:14:40.900Z,100520.31
2022-08-26T00:17:09.604Z,100516.41
2022-08-26T00:19:37.950Z,100517.33
2022-08-26T00:22:06.217Z,100520.11
2022-08-26T00:24:34.327Z,100520.34
2022-08-26T00:27:02.251Z,100520.92
2022-08-26T00:29:32.165Z,100521.85
2022-08-26T00:32:05.379Z,100519.35
2022-08-26T00:34:33.938Z,100521.77
2022-08-26T00:37:01.805Z,100515.95
2022-08-26T00:39:29.670Z,100518.42
2022-08-26T00:41:58.048Z,100517.64
2022-08-26T00:44:26.022Z,100521.50
2022-08-26T00:47:01.344Z,100519.98
2022-08-26T00:49:37.240Z,100522.09
2022-08-26T00:52:09.816Z,100521.02
2022-08-26T00:54:47.120Z,100523.05
2022-08-26T00:57:17.177Z,100523.17
2022-08-26T00:59:49.261Z,100523.21
2022-08-26T01:02:20.026Z,100521.85
2022-08-26T01:04:56.423Z,100519.30
2022-08-26T01:07:30.030Z,100521.37
2022-08-26T01:10:01.715Z,100518.77
2022-08-26T01:12:34.081Z,100522.36
2022-08-26T01:15:03.175Z,100521.33
2022-08-26T01:17:33.737Z,100518.07
2022-08-26T01:20:10.581Z,100517.73
2022-08-26T01:22:56.060Z,100519.12
2022-08-26T01:25:27.716Z,100521.02
2022-08-26T01:28:00.597Z,100520.53
2022-08-26T01:30:31.980Z,100520.09
2022-08-26T01:33:05.078Z,100520.85
2022-08-26T01:35:33.316Z,100520.55
2022-08-26T01:38:02.505Z,100523.00
2022-08-26T01:40:37.472Z,100523.23
2022-08-26T01:43:07.886Z,100521.23
2022-08-26T01:45:40.607Z,100525.03
2022-08-26T01:48:15.196Z,100525.27
2022-08-26T01:50:45.384Z,100526.00
2022-08-26T01:53:17.501Z,100523.68
2022-08-26T01:55:49.105Z,100521.52
2022-08-26T01:58:24.948Z,100522.61
2022-08-26T02:00:53.282Z,100519.76
2022-08-26T02:03:22.529Z,100518.98
2022-08-26T02:06:10.877Z,100521.61
2022-08-26T02:08:43.785Z,100522.37
2022-08-26T02:11:13.468Z,100519.14
2022-08-26T02:13:52.336Z,100521.81
2022-08-26T02:16:27.481Z,100525.13
2022-08-26T02:18:58.056Z,100526.23
2022-08-26T02:21:26.228Z,100526.03
2022-08-26T02:23:55.977Z,100526.13
2022-08-26T02:26:26.941Z,100523.31
2022-08-26T02:29:20.444Z,100520.78
2022-08-26T02:31:50.318Z,100519.63
2022-08-26T02:34:33.283Z,100518.11
2022-08-26T02:37:05.444Z,100522.59
2022-08-26T02:39:34.741Z,100525.39
2022-08-26T02:42:03.308Z,100524.05
2022-08-26T02:44:32.437Z,100522.91
2022-08-26T02:47:01.990Z,100522.39
2022-08-26T02:49:30.707Z,100519.13
2022-08-26T02:52:01.882Z,100519.30
2022-08-26T02:54:30.124Z,100521.39
2022-08-26T02:56:58.004Z,100519.86
2022-08-26T02:59:26.060Z,100521.11
2022-08-26T03:01:56.404Z,100519.04
2022-08-26T03:04:25.916Z,100514.05
2022-08-26T03:06:55.285Z,100510.30
2022-08-26T03:09:24.592Z,100509.27
2022-08-26T03:11:52.865Z,100505.98
2022-08-26T03:14:21.348Z,100503.23
2022-08-26T03:16:54.228Z,100502.02
2022-08-26T03:19:24.101Z,100503.71
2022-08-26T03:21:58.039Z,100503.36
2022-08-26T03:24:26.970Z,100501.84
2022-08-26T03:26:55.216Z,100502.03
2022-08-26T03:29:42.541Z,100500.32
2022-08-26T03:32:11.324Z,100499.12
2022-08-26T03:34:39.128Z,100500.34
2022-08-26T03:37:07.976Z,100498.63
2022-08-26T03:39:36.456Z,100498.48
2022-08-26T03:42:05.972Z,100496.08
2022-08-26T03:44:34.036Z,100495.36
2022-08-26T03:47:01.935Z,100490.05
2022-08-26T03:49:32.685Z,100486.81
2022-08-26T03:52:00.834Z,100486.66
2022-08-26T03:54:28.872Z,100487.36
2022-08-26T03:56:57.288Z,100488.94
2022-08-26T03:59:25.521Z,100489.48
2022-08-26T04:01:53.429Z,100489.70
2022-08-26T04:04:22.651Z,100493.33
2022-08-26T04:06:57.525Z,100492.64
2022-08-26T04:09:26.405Z,100496.42
2022-08-26T04:11:55.721Z,100500.58
2022-08-26T04:14:27.062Z,100501.83
2022-08-26T04:16:57.072Z,100500.00
2022-08-26T04:19:26.372Z,100500.71
2022-08-26T04:21:54.853Z,100495.37
2022-08-26T04:24:25.107Z,100493.30
2022-08-26T04:26:53.451Z,100493.08
2022-08-26T04:29:24.779Z,100491.48
2022-08-26T04:31:57.713Z,100491.98
2022-08-26T04:34:28.978Z,100492.77
2022-08-26T04:36:58.366Z,100489.27
2022-08-26T04:39:27.839Z,100485.41
2022-08-26T04:41:57.813Z,100486.35
2022-08-26T04:44:28.787Z,100485.55
2022-08-26T04:46:57.135Z,100486.16
2022-08-26T04:49:26.259Z,100487.82
2022-08-26T04:51:55.571Z,100488.45
2022-08-26T04:54:25.135Z,100490.61
2022-08-26T04:56:53.231Z,100491.01
2022-08-26T04:59:21.201Z,100492.94
2022-08-26T05:01:52.489Z,100492.69
2022-08-26T05:04:21.131Z,100489.30
2022-08-26T05:06:50.070Z,100489.52
2022-08-26T05:09:20.959Z,100490.60
2022-08-26T05:11:52.392Z,100491.85
2022-08-26T05:14:23.429Z,100488.79
2022-08-26T05:16:52.339Z,100495.36
2022-08-26T05:19:21.050Z,100496.54
2022-08-26T05:21:49.445Z,100499.81
2022-08-26T05:24:18.240Z,100503.44
2022-08-26T05:26:48.146Z,100503.23
2022-08-26T05:29:16.966Z,100503.02
2022-08-26T05:31:45.207Z,100502.71
2022-08-26T05:34:13.638Z,100509.08
2022-08-26T05:36:42.028Z,100514.08
2022-08-26T05:39:10.819Z,100518.05
2022-08-26T05:41:41.266Z,100519.13
2022-08-26T05:44:11.891Z,100520.20
2022-08-26T05:46:41.341Z,100517.66
2022-08-26T05:49:12.802Z,100519.11
2022-08-26T05:51:45.392Z,100521.52
2022-08-26T05:54:14.335Z,100521.53
2022-08-26T05:56:50.338Z,100517.27
2022-08-26T05:59:21.357Z,100517.28
2022-08-26T06:01:55.090Z,100516.61
2022-08-26T06:04:27.018Z,100514.48
2022-08-26T06:06:56.167Z,100513.45
2022-08-26T06:09:25.049Z,100512.13
2022-08-26T06:11:52.936Z,100516.05
2022-08-26T06:14:21.886Z,100514.39
2022-08-26T06:16:50.365Z,100517.77
2022-08-26T06:19:19.973Z,100519.78
2022-08-26T06:21:54.209Z,100520.02
2022-08-26T06:24:41.822Z,100519.03
2022-08-26T06:27:13.929Z,100518.54
2022-08-26T06:29:43.092Z,100517.77
2022-08-26T06:32:11.125Z,100520.05
2022-08-26T06:34:39.014Z,100517.85
2022-08-26T06:37:07.393Z,100518.16
2022-08-26T06:39:35.364Z,100517.04
2022-08-26T06:42:08.857Z,100514.96
2022-08-26T06:44:38.977Z,100515.52
2022-08-26T06:47:09.304Z,100515.91
2022-08-26T06:49:37.472Z,100514.83
2022-08-26T06:52:05.440Z,100516.20
2022-08-26T06:54:33.491Z,100511.73
2022-08-26T06:57:01.685Z,100512.29
2022-08-26T06:59:31.366Z,100512.90
2022-08-26T07:01:59.405Z,100511.16
2022-08-26T07:04:28.196Z,100512.67
2022-08-26T07:06:56.839Z,100510.41
2022-08-26T07:09:28.484Z,100509.58
2022-08-26T07:11:56.558Z,100506.66
2022-08-26T07:14:26.312Z,100505.45
2022-08-26T07:16:55.152Z,100500.63
2022-08-26T07:19:30.368Z,100501.02
2022-08-26T07:22:03.637Z,100499.30
2022-08-26T07:24:37.185Z,100500.48
2022-08-26T07:27:08.743Z,100500.92
2022-08-26T07:29:39.219Z,100500.16
2022-08-26T07:32:07.904Z,100501.06
2022-08-26T07:34:38.349Z,100503.60
2022-08-26T07:37:08.876Z,100501.88
2022-08-26T07:39:37.863Z,100500.16
2022-08-26T07:42:09.545Z,100502.56
2022-08-26T07:44:39.418Z,100502.16
2022-08-26T07:47:10.257Z,100498.55
2022-08-26T07:49:58.061Z,100494.55
2022-08-26T07:52:28.736Z,100493.11
2022-08-26T07:54:59.265Z,100490.58
2022-08-26T07:57:28.185Z,100492.44
2022-08-26T07:59:56.902Z,100490.20
2022-08-26T08:02:26.923Z,100489.85
2022-08-26T08:04:55.334Z,100488.63
2022-08-26T08:07:25.801Z,100488.91
2022-08-26T08:10:18.155Z,100486.06
2022-08-26T08:12:47.218Z,100486.39
2022-08-26T08:15:17.010Z,100487.94
2022-08-26T08:17:45.135Z,100488.77
2022-08-26T08:20:14.896Z,100485.67
2022-08-26T08:22:43.696Z,100489.80
2022-08-26T08:25:13.164Z,100488.88
2022-08-26T08:27:42.062Z,100482.99
2022-08-26T08:30:10.958Z,100482.01
2022-08-26T08:32:45.571Z,100478.34
2022-08-26T08:35:16.648Z,100482.31
2022-08-26T08:37:45.228Z,100478.04
2022-08-26T08:40:18.584Z,100476.02
2022-08-26T08:42:49.496Z,100476.20
2022-08-26T08:45:36.755Z,100476.40
2022-08-26T08:48:27.693Z,100479.18
2022-08-26T08:51:17.664Z,100476.84
2022-08-26T08:53:49.747Z,100470.17
2022-08-26T08:56:44.957Z,100470.66
2022-08-26T08:59:25.926Z,100472.14
2022-08-26T09:02:22.493Z,100469.25
2022-08-26T09:05:03.107Z,100468.48
2022-08-26T09:07:36.820Z,100467.06
2022-08-26T09:10:17.227Z,100468.35
2022-08-26T09:12:46.563Z,100467.05
2022-08-26T09:15:30.179Z,100469.25
2022-08-26T09:18:04.481Z,100465.98
2022-08-26T09:21:00.951Z,100462.20
2022-08-26T09:23:30.280Z,100459.98
2022-08-26T09:26:02.189Z,100457.59
2022-08-26T09:28:31.625Z,100456.70
2022-08-26T09:31:11.697Z,100454.03
2022-08-26T09:33:41.125Z,100459.66
2022-08-26T09:36:41.055Z,100455.53
2022-08-26T09:39:32.022Z,100457.31
2022-08-26T09:42:23.171Z,100454.86
2022-08-26T09:44:59.777Z,100451.59
2022-08-26T09:47:36.565Z,100450.21
2022-08-26T09:50:29.157Z,100449.32
2022-08-26T09:53:31.470Z,100446.45
2022-08-26T09:56:27.863Z,100441.06
2022-08-26T09:58:57.226Z,100435.41
2022-08-26T10:01:35.995Z,100434.39
2022-08-26T10:04:20.562Z,100438.65
2022-08-26T10:07:18.827Z,100437.16
2022-08-26T10:09:48.321Z,100438.91
2022-08-26T10:12:23.085Z,100437.69
2022-08-26T10:15:03.036Z,100437.02
2022-08-26T10:17:46.273Z,100435.44
2022-08-26T10:20:23.177Z,100433.48
2022-08-26T10:23:18.861Z,100434.49
2022-08-26T10:25:59.086Z,100437.41
2022-08-26T10:28:53.777Z,100435.84
2022-08-26T10:31:38.292Z,100432.11
2022-08-26T10:34:12.513Z,100434.63
2022-08-26T10:37:14.592Z,100432.51
2022-08-26T10:40:02.718Z,100431.10
2022-08-26T10:42:37.634Z,100433.44
2022-08-26T10:45:38.234Z,100429.17
2022-08-26T10:48:35.586Z,100430.98
2022-08-26T10:51:05.680Z,100430.00
2022-08-26T10:54:04.416Z,100426.52
2022-08-26T10:57:11.848Z,100423.23
2022-08-26T11:00:27.531Z,100423.25
2022-08-26T11:03:21.908Z,100416.05
2022-08-26T11:06:20.255Z,100417.88
2022-08-26T11:09:01.367Z,100412.52
2022-08-26T11:11:41.248Z,100415.31
2022-08-26T11:14:17.975Z,100414.44
2022-08-26T11:16:58.878Z,100412.78
2022-08-26T11:19:56.791Z,100408.18
2022-08-26T11:22:26.106Z,100407.72
2022-08-26T11:24:57.073Z,100402.94
2022-08-26T11:27:37.053Z,100399.61
2022-08-26T11:30:18.586Z,100391.89
2022-08-26T11:32:48.629Z,100392.52
2022-08-26T11:35:19.479Z,100391.35
2022-08-26T11:37:48.305Z,100383.82
2022-08-26T11:40:20.720Z,100387.48
2022-08-26T11:43:29.847Z,100380.02
2022-08-26T11:46:12.684Z,100386.17
2022-08-26T11:48:44.466Z,100388.36
2022-08-26T11:51:24.022Z,100385.45
2022-08-26T11:53:51.869Z,100381.32
2022-08-26T11:56:31.721Z,100372.33
2022-08-26T11:59:03.645Z,100376.93
2022-08-26T12:01:35.808Z,100372.79
2022-08-26T12:04:06.508Z,100372.81
2022-08-26T12:06:43.345Z,100369.46
2022-08-26T12:09:27.257Z,100362.37
2022-08-26T12:12:22.217Z,100358.70
2022-08-26T12:15:18.656Z,100353.85
2022-08-26T12:17:53.394Z,100350.64
2022-08-26T12:20:48.654Z,100346.19
2022-08-26T12:23:25.565Z,100343.72
2022-08-26T12:26:07.672Z,100341.94
2022-08-26T12:28:47.568Z,100337.97
2022-08-26T12:31:30.076Z,100338.97
2022-08-26T12:34:01.737Z,100337.61
2022-08-26T12:36:38.154Z,100337.30
2022-08-26T12:39:12.947Z,100335.10
2022-08-26T12:41:48.489Z,100330.80
2022-08-26T12:45:00.430Z,100326.16
2022-08-26T12:47:43.157Z,100317.42
2022-08-26T12:50:19.910Z,100318.65
2022-08-26T12:53:24.950Z,100312.75
2022-08-26T12:55:59.264Z,100314.12
2022-08-26T12:58:29.999Z,100310.32
2022-08-26T13:01:00.852Z,100308.06
2022-08-26T13:03:31.567Z,100300.79
2022-08-26T13:06:23.801Z,100294.94
2022-08-26T13:09:08.615Z,100296.91
2022-08-26T13:11:40.117Z,100293.59
2022-08-26T13:14:21.176Z,100291.19
2022-08-26T13:16:53.487Z,100289.66
2022-08-26T13:19:23.954Z,100289.74
2022-08-26T13:21:54.823Z,100284.63
2022-08-26T13:24:44.199Z,100282.73
2022-08-26T13:27:14.622Z,100278.97
2022-08-26T13:29:42.796Z,100278.83
2022-08-26T13:32:11.153Z,100278.27
2022-08-26T13:34:39.348Z,100278.06
2022-08-26T13:37:07.620Z,100271.62
2022-08-26T13:39:35.592Z,100274.73
2022-08-26T13:42:04.138Z,100268.21
2022-08-26T13:44:32.139Z,100271.40
2022-08-26T13:47:00.106Z,100267.85
2022-08-26T13:49:28.113Z,100268.41
2022-08-26T13:51:56.058Z,100265.06
2022-08-26T13:54:24.322Z,100265.71
2022-08-26T13:56:52.288Z,100262.82
2022-08-26T13:59:20.526Z,100257.41
2022-08-26T14:01:48.496Z,100253.85
2022-08-26T14:04:16.399Z,100251.09
2022-08-26T14:06:51.639Z,100250.15
2022-08-26T14:09:19.710Z,100251.45
2022-08-26T14:11:54.524Z,100247.08
2022-08-26T14:14:23.220Z,100240.61
2022-08-26T14:16:59.482Z,100241.87
2022-08-26T14:19:30.203Z,100240.14
2022-08-26T14:22:01.026Z,100239.61
2022-08-26T14:24:29.904Z,100237.48
2022-08-26T14:26:58.115Z,100235.27
2022-08-26T14:29:26.663Z,100238.25
2022-08-26T14:31:58.049Z,100239.20
2022-08-26T14:34:26.112Z,100240.41
2022-08-26T14:36:54.294Z,100235.45
2022-08-26T14:39:22.362Z,100230.80
2022-08-26T14:41:55.138Z,100230.95
2022-08-26T14:44:29.926Z,100226.93
2022-08-26T14:47:01.306Z,100221.86
2022-08-26T14:49:31.434Z,100222.18
2022-08-26T14:52:00.022Z,100221.35
2022-08-26T14:54:29.594Z,100219.90
2022-08-26T14:57:01.039Z,100217.52
2022-08-26T14:59:35.393Z,100215.78
2022-08-26T15:02:04.480Z,100221.34
2022-08-26T15:04:32.762Z,100217.52
2022-08-26T15:07:01.446Z,100215.22
2022-08-26T15:09:32.474Z,100213.95
2022-08-26T15:12:00.614Z,100215.45
2022-08-26T15:14:32.853Z,100213.88
2022-08-26T15:17:01.206Z,100211.92
2022-08-26T15:19:29.585Z,100205.96
2022-08-26T15:21:57.721Z,100201.19
2022-08-26T15:24:27.009Z,100199.64
2022-08-26T15:26:55.027Z,100200.81
2022-08-26T15:29:24.525Z,100198.49
2022-08-26T15:31:56.824Z,100199.63
2022-08-26T15:34:25.480Z,100198.27
2022-08-26T15:36:53.759Z,100196.96
2022-08-26T15:39:21.931Z,100195.55
2022-08-26T15:41:50.116Z,100193.34
2022-08-26T15:44:18.792Z,100198.66
2022-08-26T15:46:49.709Z,100197.73
2022-08-26T15:49:18.886Z,100197.45
2022-08-26T15:51:50.685Z,100198.48
2022-08-26T15:54:22.544Z,100194.95
2022-08-26T15:56:52.583Z,100195.48
2022-08-26T15:59:22.504Z,100194.89
2022-08-26T16:01:51.488Z,100189.61
2022-08-26T16:04:20.427Z,100190.96
2022-08-26T16:06:50.492Z,100189.02
2022-08-26T16:09:21.305Z,100188.64
2022-08-26T16:11:55.315Z,100187.16
2022-08-26T16:14:24.525Z,100185.56
2022-08-26T16:16:53.611Z,100184.66
2022-08-26T16:19:21.984Z,100185.77
2022-08-26T16:21:51.696Z,100188.33
2022-08-26T16:24:28.427Z,100184.75
2022-08-26T16:26:58.550Z,100186.46
2022-08-26T16:29:26.863Z,100185.35
2022-08-26T16:31:55.028Z,100181.71
2022-08-26T16:34:23.081Z,100185.36
2022-08-26T16:36:51.283Z,100184.81
2022-08-26T16:39:19.351Z,100182.83
2022-08-26T16:41:47.275Z,100180.02
2022-08-26T16:44:15.286Z,100178.00
2022-08-26T16:46:43.828Z,100175.23
2022-08-26T16:49:12.248Z,100177.13
2022-08-26T16:51:40.735Z,100178.98
2022-08-26T16:54:09.213Z,100179.42
2022-08-26T16:56:38.043Z,100178.90
2022-08-26T16:59:09.860Z,100180.90
2022-08-26T17:01:38.076Z,100180.33
2022-08-26T17:04:06.304Z,100182.58
2022-08-26T17:06:34.580Z,100182.75
2022-08-26T17:09:02.658Z,100183.70
2022-08-26T17:11:31.233Z,100180.83
2022-08-26T17:13:59.508Z,100185.60
2022-08-26T17:16:28.125Z,100184.70
2022-08-26T17:18:58.312Z,100188.96
2022-08-26T17:21:28.640Z,100191.30
2022-08-26T17:23:56.910Z,100190.03
2022-08-26T17:26:25.688Z,100191.75
2022-08-26T17:28:54.681Z,100192.33
2022-08-26T17:31:23.959Z,100190.34
2022-08-26T17:33:53.915Z,100192.08
2022-08-26T17:36:27.788Z,100189.73
2022-08-26T17:38:57.941Z,100187.25
2022-08-26T17:41:26.428Z,100190.59
2022-08-26T17:43:55.085Z,100192.14
2022-08-26T17:46:23.837Z,100192.55
2022-08-26T17:48:52.151Z,100195.02
2022-08-26T17:51:20.282Z,100191.45
2022-08-26T17:53:48.799Z,100191.37
2022-08-26T17:56:19.537Z,100191.67
2022-08-26T17:58:51.110Z,100196.52
2022-08-26T18:01:26.336Z,100194.25
2022-08-26T18:03:59.695Z,100192.22
2022-08-26T18:06:30.889Z,100192.08
2022-08-26T18:09:00.168Z,100189.02
2022-08-26T18:11:28.909Z,100193.43
2022-08-26T18:13:57.637Z,100192.81
2022-08-26T18:16:26.015Z,100197.20
2022-08-26T18:18:55.092Z,100196.36
2022-08-26T18:21:26.859Z,100198.58
2022-08-26T18:23:55.901Z,100197.80
2022-08-26T18:26:28.633Z,100199.17
2022-08-26T18:28:56.605Z,100197.50
2022-08-26T18:31:25.340Z,100199.09
2022-08-26T18:33:53.461Z,100195.48
2022-08-26T18:36:25.320Z,100197.00
2022-08-26T18:38:54.421Z,100199.15
2022-08-26T18:41:24.738Z,100200.00
2022-08-26T18:43:54.122Z,100199.84
2022-08-26T18:46:27.330Z,100205.24
2022-08-26T18:48:57.145Z,100204.30
2022-08-26T18:51:29.818Z,100201.67
2022-08-26T18:53:58.535Z,100203.42
2022-08-26T18:56:27.208Z,100203.63
2022-08-26T18:58:55.156Z,100200.05
2022-08-26T19:01:27.150Z,100202.49
2022-08-26T19:04:00.212Z,100202.48
2022-08-26T19:06:33.034Z,100204.05
2022-08-26T19:09:02.188Z,100200.27
2022-08-26T19:11:31.853Z,100203.04
2022-08-26T19:14:09.387Z,100203.00
2022-08-26T19:16:37.823Z,100200.31
2022-08-26T19:19:06.083Z,100199.14
2022-08-26T19:21:35.853Z,100198.02
2022-08-26T19:24:07.256Z,100197.23
2022-08-26T19:26:35.678Z,100196.73
2022-08-26T19:29:04.289Z,100197.02
2022-08-26T19:31:32.330Z,100195.52
2022-08-26T19:34:06.700Z,100198.79
2022-08-26T19:36:37.998Z,100199.39
2022-08-26T19:39:09.647Z,100199.41
2022-08-26T19:42:01.697Z,100203.27
2022-08-26T19:44:56.318Z,100207.20
2022-08-26T19:47:24.186Z,100201.77
2022-08-26T19:49:56.656Z,100208.40
2022-08-26T19:52:25.825Z,100210.37
2022-08-26T19:54:59.452Z,100212.37
2022-08-26T19:57:27.402Z,100209.83
2022-08-26T19:59:58.226Z,100208.56
2022-08-26T20:02:26.226Z,100207.40
2022-08-26T20:04:55.632Z,100208.33
2022-08-26T20:07:25.258Z,100203.70
2022-08-26T20:09:56.406Z,100204.48
2022-08-26T20:12:25.111Z,100201.79
2022-08-26T20:14:59.909Z,100204.79
2022-08-26T20:17:38.194Z,100203.77
2022-08-26T20:20:33.722Z,100208.49
2022-08-26T20:23:05.589Z,100211.84
2022-08-26T20:25:33.941Z,100212.02
2022-08-26T20:28:05.595Z,100216.27
2022-08-26T20:30:42.242Z,100211.38
2022-08-26T20:33:11.064Z,100209.41
2022-08-26T20:35:39.408Z,100210.73
2022-08-26T20:38:10.954Z,100214.95
2022-08-26T20:40:41.175Z,100216.16
2022-08-26T20:43:12.903Z,100213.87
2022-08-26T20:45:48.516Z,100218.58
2022-08-26T20:48:16.937Z,100219.05
2022-08-26T20:50:46.542Z,100221.46
2022-08-26T20:53:15.462Z,100225.44
2022-08-26T20:55:43.466Z,100221.14
2022-08-26T20:58:11.558Z,100225.06
2022-08-26T21:00:39.740Z,100223.31
2022-08-26T21:03:07.881Z,100227.16
2022-08-26T21:05:36.054Z,100229.53
2022-08-26T21:08:04.230Z,100228.23
2022-08-26T21:10:33.117Z,100229.05
2022-08-26T21:13:02.318Z,100230.55
2022-08-26T21:15:30.284Z,100229.14
2022-08-26T21:17:59.937Z,100227.21
2022-08-26T21:20:28.060Z,100230.09
2022-08-26T21:22:56.129Z,100227.76
2022-08-26T21:25:24.489Z,100223.83
2022-08-26T21:27:52.782Z,100224.24
2022-08-26T21:30:20.957Z,100222.63
2022-08-26T21:32:49.745Z,100224.95
2022-08-26T21:35:18.142Z,100218.13
2022-08-26T21:37:46.297Z,100219.40
2022-08-26T21:40:14.646Z,100219.69
2022-08-26T21:42:42.641Z,100220.85
2022-08-26T21:45:11.114Z,100220.95
2022-08-26T21:47:39.908Z,100224.34
2022-08-26T21:50:08.697Z,100224.73
2022-08-26T21:52:37.892Z,100222.49
2022-08-26T21:55:08.779Z,100221.80
2022-08-26T21:57:37.412Z,100217.66
2022-08-26T22:00:09.405Z,100219.18
2022-08-26T22:02:37.403Z,100217.22
2022-08-26T22:05:06.130Z,100216.52
2022-08-26T22:07:34.207Z,100216.98
2022-08-26T22:10:02.476Z,100214.62
2022-08-26T22:12:30.445Z,100209.25
2022-08-26T22:14:59.027Z,100210.19
2022-08-26T22:17:28.940Z,100212.16
2022-08-26T22:19:57.116Z,100211.98
2022-08-26T22:22:26.623Z,100217.11
2022-08-26T22:24:54.689Z,100213.92
2022-08-26T22:27:23.378Z,100213.33
2022-08-26T22:29:51.706Z,100216.55
2022-08-26T22:32:19.616Z,100217.36
2022-08-26T22:34:48.916Z,100213.30
2022-08-26T22:37:16.884Z,100217.34
2022-08-26T22:39:44.851Z,100217.41
2022-08-26T22:42:12.823Z,100219.37
2022-08-26T22:44:41.608Z,100219.98
2022-08-26T22:47:09.576Z,100216.30
2022-08-26T22:49:37.544Z,100220.96
2022-08-26T22:52:05.615Z,100221.67
2022-08-26T22:54:33.480Z,100222.23
2022-08-26T22:57:01.448Z,100217.36
2022-08-26T22:59:29.420Z,100218.17
2022-08-26T23:01:57.691Z,100218.04
2022-08-26T23:04:25.669Z,100214.93
2022-08-26T23:06:53.628Z,100208.02
2022-08-26T23:09:21.595Z,100205.81
2022-08-26T23:11:49.972Z,100200.66
2022-08-26T23:14:18.886Z,100200.20
2022-08-26T23:16:47.981Z,100198.29
2022-08-26T23:19:19.097Z,100194.85
2022-08-26T23:21:48.193Z,100192.96
2022-08-26T23:24:17.500Z,100191.45
2022-08-26T23:26:46.672Z,100191.77
2022-08-26T23:29:15.854Z,100191.41
2022-08-26T23:31:44.222Z,100190.73
2022-08-26T23:34:31.484Z,100191.25
2022-08-26T23:37:00.233Z,100185.34
2022-08-26T23:39:31.412Z,100184.73
2022-08-26T23:42:01.950Z,100184.30
2022-08-26T23:44:30.934Z,100179.83
2022-08-26T23:46:59.106Z,100176.46
2022-08-26T23:49:27.586Z,100174.84
2022-08-26T23:52:14.397Z,100173.23
2022-08-26T23:54:42.758Z,100172.68
2022-08-26T23:57:11.560Z,100165.39
2022-08-26T23:59:40.042Z,100161.73
